Time;durP1;ratioP1;P1;durP2;ratioP2;P2;SDS_P1;SDS_P2;PMS_P1;PMS_P2;Temp;Humidity;BMP_temperature;BMP_pressure;BME280_temperature;BME280_humidity;BME280_pressure;Samples;Min_cycle;Max_cycle;Signal;HPM_P1;HPM_P2
2022/09/08 00:02:11;;;;;;;61.17;50.47;;;25.00;60.70;;;;;;5002876;27;92204;-58
2022/09/08 00:04:37;;;;;;;61.47;50.13;;;25.00;60.70;;;;;;5009241;27;90221;-57
2022/09/08 00:07:04;;;;;;;60.83;50.05;;;25.00;60.70;;;;;;5000783;28;91639;-57
2022/09/08 00:09:30;;;;;;;62.00;50.30;;;25.00;60.70;;;;;;4997792;28;91204;-57
2022/09/08 00:11:57;;;;;;;64.30;50.33;;;25.00;60.70;;;;;;5001202;28;92556;-58
2022/09/08 00:14:23;;;;;;;61.25;50.35;;;25.00;60.80;;;;;;5006073;28;91470;-59
2022/09/08 00:16:48;;;;;;;62.40;50.20;;;24.90;60.70;;;;;;5006520;28;90537;-59
2022/09/08 00:19:14;;;;;;;61.15;50.35;;;25.00;60.80;;;;;;5010313;28;95795;-58
2022/09/08 00:21:40;;;;;;;61.28;50.15;;;25.00;60.80;;;;;;5003913;28;94959;-59
2022/09/08 00:24:05;;;;;;;61.03;50.55;;;24.90;60.60;;;;;;5008188;28;91080;-58
2022/09/08 00:26:31;;;;;;;61.90;49.95;;;25.00;60.70;;;;;;5002750;27;91869;-58
2022/09/08 00:28:57;;;;;;;61.38;50.35;;;25.00;60.80;;;;;;5004065;27;99776;-59
2022/09/08 00:31:23;;;;;;;61.05;50.13;;;24.90;60.70;;;;;;5006610;27;91550;-59
2022/09/08 00:33:49;;;;;;;61.22;50.00;;;24.90;60.70;;;;;;4998829;27;95239;-58
2022/09/08 00:36:15;;;;;;;60.97;50.15;;;24.90;60.70;;;;;;5008375;28;90068;-58
2022/09/08 00:38:42;;;;;;;60.90;50.25;;;24.90;60.60;;;;;;5000850;27;91310;-56
2022/09/08 00:41:12;;;;;;;61.05;50.25;;;24.90;60.60;;;;;;5006461;28;91021;-60
2022/09/08 00:43:42;;;;;;;61.80;50.25;;;24.90;60.60;;;;;;5014301;28;90475;-57
2022/09/08 00:46:14;;;;;;;61.63;50.33;;;24.90;60.60;;;;;;5002604;27;89887;-60
2022/09/08 00:48:54;;;;;;;61.28;50.35;;;24.90;60.60;;;;;;5004894;28;92368;-59
2022/09/08 00:51:22;;;;;;;61.08;50.05;;;24.90;60.60;;;;;;4997915;28;93877;-58
2022/09/08 00:53:48;;;;;;;61.50;50.38;;;24.90;60.60;;;;;;5003405;27;90582;-60
2022/09/08 00:56:16;;;;;;;60.42;49.80;;;24.90;60.60;;;;;;5001671;28;90852;-58
2022/09/08 00:58:42;;;;;;;60.58;50.05;;;24.90;60.70;;;;;;4995005;28;92206;-59
2022/09/08 01:01:09;;;;;;;61.75;50.08;;;24.90;60.70;;;;;;5003052;27;90943;-59
2022/09/08 01:03:38;;;;;;;61.20;50.20;;;24.90;60.80;;;;;;5014729;28;91434;-60
2022/09/08 01:14:56;;;;;;;61.00;50.15;;;24.90;60.50;;;;;;5002196;28;91574;-59
2022/09/08 01:17:28;;;;;;;60.95;50.25;;;24.90;60.60;;;;;;5003552;27;90661;-59
2022/09/08 01:19:55;;;;;;;61.72;50.35;;;24.90;60.50;;;;;;4997109;28;91586;-59
2022/09/08 01:22:39;;;;;;;61.85;50.05;;;24.90;60.60;;;;;;5008207;28;92213;-58
2022/09/08 01:25:39;;;;;;;60.33;50.05;;;24.90;60.60;;;;;;4998797;28;91598;-59
2022/09/08 01:28:11;;;;;;;60.83;50.15;;;24.90;60.60;;;;;;4997944;28;90961;-58
2022/09/08 01:30:37;;;;;;;60.90;50.08;;;24.90;60.60;;;;;;5004768;28;91423;-58
2022/09/08 01:33:06;;;;;;;60.45;50.13;;;24.90;60.60;;;;;;5011201;28;90957;-60
2022/09/08 01:35:40;;;;;;;61.20;49.85;;;24.80;60.60;;;;;;5000941;28;90810;-57
2022/09/08 01:38:08;;;;;;;61.40;50.25;;;24.90;60.50;;;;;;5002356;28;92073;-57
2022/09/08 01:40:34;;;;;;;60.88;49.90;;;24.80;60.50;;;;;;5002629;28;92107;-58
2022/09/08 01:43:00;;;;;;;60.17;49.95;;;24.80;60.60;;;;;;5008116;27;92218;-59
2022/09/08 01:45:27;;;;;;;60.53;49.95;;;24.90;60.50;;;;;;5002694;27;89600;-57
2022/09/08 01:47:53;;;;;;;60.22;50.05;;;24.90;60.70;;;;;;5006179;28;91864;-59
2022/09/08 01:50:20;;;;;;;61.10;50.33;;;24.80;60.60;;;;;;5006079;28;91118;-58
2022/09/08 01:52:46;;;;;;;61.20;50.03;;;24.80;60.60;;;;;;5005090;27;92662;-59
2022/09/08 01:55:11;;;;;;;60.90;50.17;;;24.80;61.40;;;;;;4997618;28;90372;-60
2022/09/08 01:57:37;;;;;;;60.10;50.05;;;24.80;60.70;;;;;;5005683;27;89216;-60
2022/09/08 02:00:05;;;;;;;60.10;50.00;;;24.80;60.60;;;;;;5012192;27;91062;-58
2022/09/08 02:02:31;;;;;;;60.85;49.92;;;24.80;60.70;;;;;;5007399;27;90792;-60
2022/09/08 02:04:57;;;;;;;61.22;50.20;;;24.80;60.50;;;;;;4996281;27;92051;-57
2022/09/08 02:07:23;;;;;;;60.83;50.08;;;24.80;60.60;;;;;;5004185;27;90546;-60
2022/09/08 02:09:48;;;;;;;61.30;50.10;;;24.80;60.70;;;;;;5005727;27;91690;-57
2022/09/08 02:12:14;;;;;;;60.65;50.05;;;24.80;60.70;;;;;;5000059;27;96284;-55
2022/09/08 02:14:40;;;;;;;60.58;50.13;;;24.80;60.60;;;;;;5000914;28;91064;-58
2022/09/08 02:17:06;;;;;;;60.75;50.05;;;24.70;60.60;;;;;;5004085;28;90228;-59
2022/09/08 02:19:31;;;;;;;61.08;50.08;;;24.80;60.60;;;;;;5003990;27;90723;-58
2022/09/08 02:21:57;;;;;;;62.60;49.92;;;24.80;60.60;;;;;;5003125;28;90832;-60
2022/09/08 02:24:23;;;;;;;61.28;49.95;;;24.80;60.60;;;;;;5004675;28;90492;-59
2022/09/08 02:26:48;;;;;;;60.65;50.08;;;24.80;60.60;;;;;;5002441;27;91698;-57
2022/09/08 02:29:15;;;;;;;60.40;49.83;;;24.70;60.50;;;;;;5007911;27;91807;-59
2022/09/08 02:31:41;;;;;;;61.95;50.10;;;24.70;60.80;;;;;;5001731;28;92385;-56
2022/09/08 02:34:07;;;;;;;60.42;50.00;;;24.70;60.70;;;;;;5005933;27;90018;-59
2022/09/08 02:36:34;;;;;;;60.47;50.10;;;24.70;60.60;;;;;;4999620;27;91782;-58
2022/09/08 02:39:00;;;;;;;59.90;49.75;;;24.70;60.70;;;;;;5000006;27;91453;-58
2022/09/08 02:41:27;;;;;;;60.25;49.85;;;24.70;60.80;;;;;;5006686;27;91345;-59
2022/09/08 02:43:53;;;;;;;61.20;49.95;;;24.70;60.80;;;;;;5002388;27;90348;-59
2022/09/08 02:46:19;;;;;;;61.35;49.92;;;24.70;60.80;;;;;;5002969;27;89943;-59
2022/09/08 02:48:46;;;;;;;60.88;50.00;;;24.70;60.60;;;;;;5004800;28;91065;-60
2022/09/08 02:51:14;;;;;;;60.63;49.90;;;24.70;60.70;;;;;;4997628;28;90912;-58
2022/09/08 02:53:41;;;;;;;61.58;50.13;;;24.70;60.70;;;;;;5001236;28;93043;-58
2022/09/08 02:56:08;;;;;;;60.58;49.92;;;24.70;61.40;;;;;;5000579;27;92839;-59
2022/09/08 02:58:35;;;;;;;60.70;50.15;;;24.70;60.80;;;;;;4999393;27;91343;-57
2022/09/08 03:01:01;;;;;;;60.70;50.03;;;24.70;60.80;;;;;;5003777;28;90881;-58
2022/09/08 03:03:27;;;;;;;61.50;49.90;;;24.70;60.80;;;;;;4999340;27;91964;-59
2022/09/08 03:05:53;;;;;;;62.35;49.97;;;24.60;60.70;;;;;;5001481;28;95392;-60
2022/09/08 03:08:20;;;;;;;60.55;49.92;;;24.70;60.90;;;;;;5010456;27;90269;-60
2022/09/08 03:10:48;;;;;;;60.70;50.05;;;24.60;60.90;;;;;;5006104;27;90910;-56
2022/09/08 03:13:14;;;;;;;59.88;49.95;;;24.60;60.80;;;;;;5001729;28;93317;-58
2022/09/08 03:15:40;;;;;;;60.90;50.03;;;24.60;60.80;;;;;;5000089;28;90182;-59
2022/09/08 03:18:07;;;;;;;60.55;49.95;;;24.60;60.80;;;;;;5001274;27;92036;-59
2022/09/08 03:20:34;;;;;;;59.78;49.83;;;24.60;60.90;;;;;;4996748;27;92437;-59
2022/09/08 03:23:00;;;;;;;60.65;49.88;;;24.60;61.00;;;;;;5011224;27;90330;-59
2022/09/08 03:25:26;;;;;;;61.60;50.10;;;24.60;60.90;;;;;;5005049;27;91401;-59
2022/09/08 03:27:52;;;;;;;60.15;49.72;;;24.60;60.80;;;;;;5004621;27;91729;-59
2022/09/08 03:30:18;;;;;;;60.70;49.92;;;24.60;60.90;;;;;;5003258;28;91379;-58
2022/09/08 03:32:46;;;;;;;60.42;49.95;;;24.60;60.90;;;;;;4999017;27;91024;-58
2022/09/08 03:35:14;;;;;;;60.42;49.85;;;24.60;61.10;;;;;;4997764;28;89245;-60
2022/09/08 03:37:40;;;;;;;59.88;49.88;;;24.60;60.80;;;;;;5006360;27;91370;-59
2022/09/08 03:40:11;;;;;;;60.25;49.85;;;24.60;60.80;;;;;;4998847;27;90924;-59
2022/09/08 03:42:39;;;;;;;59.78;49.72;;;24.60;60.90;;;;;;5000494;27;93224;-56
2022/09/08 03:45:10;;;;;;;61.00;49.72;;;24.50;60.70;;;;;;5001203;28;90808;-59
2022/09/08 03:47:36;;;;;;;59.83;49.85;;;24.60;60.80;;;;;;4996969;28;92599;-59
2022/09/08 03:50:02;;;;;;;60.13;49.78;;;24.50;60.80;;;;;;4997897;27;90899;-59
2022/09/08 03:52:28;;;;;;;59.97;49.78;;;24.50;60.70;;;;;;5002874;27;89523;-59
2022/09/08 03:54:54;;;;;;;59.50;49.55;;;24.50;60.80;;;;;;5002645;27;91962;-59
2022/09/08 03:57:26;;;;;;;59.75;49.72;;;24.50;60.70;;;;;;5013737;27;91284;-59
2022/09/08 03:59:53;;;;;;;60.83;50.05;;;24.50;60.80;;;;;;5007428;27;89934;-59
2022/09/08 04:02:21;;;;;;;59.83;49.83;;;24.50;60.70;;;;;;5005842;27;94483;-61
2022/09/08 04:04:51;;;;;;;59.83;49.85;;;24.50;60.70;;;;;;5004348;28;90000;-61
2022/09/08 04:07:19;;;;;;;60.47;49.80;;;24.50;60.70;;;;;;5007579;28;92368;-58
2022/09/08 04:09:45;;;;;;;59.90;49.67;;;24.50;60.70;;;;;;5007530;28;91800;-59
2022/09/08 04:12:11;;;;;;;60.15;49.83;;;24.50;60.80;;;;;;5008144;28;91815;-59
2022/09/08 04:14:38;;;;;;;59.80;49.80;;;24.50;60.70;;;;;;5002551;27;89613;-59
2022/09/08 04:17:05;;;;;;;59.38;49.65;;;24.50;60.70;;;;;;5010094;27;91146;-59
2022/09/08 04:19:31;;;;;;;60.85;49.72;;;24.50;60.60;;;;;;5008930;27;90858;-60
2022/09/08 04:21:56;;;;;;;59.63;49.70;;;24.50;60.70;;;;;;5005570;27;89858;-58
2022/09/08 04:24:22;;;;;;;59.78;50.10;;;24.50;60.60;;;;;;5007314;27;89155;-59
2022/09/08 04:26:48;;;;;;;60.10;49.75;;;24.50;60.60;;;;;;5009518;27;92009;-58
2022/09/08 04:29:15;;;;;;;59.28;49.50;;;24.50;60.60;;;;;;5008520;28;94328;-60
2022/09/08 04:31:42;;;;;;;60.45;49.85;;;24.50;60.60;;;;;;4996880;28;92035;-60
2022/09/08 04:34:08;;;;;;;59.80;49.65;;;24.50;60.60;;;;;;5007440;27;92084;-59
2022/09/08 04:36:34;;;;;;;60.60;49.95;;;24.50;60.60;;;;;;5020133;27;90792;-60
2022/09/08 04:39:00;;;;;;;59.92;49.78;;;24.40;60.60;;;;;;5002916;27;90942;-60
2022/09/08 04:41:29;;;;;;;60.58;49.88;;;24.40;60.70;;;;;;5006126;27;90081;-59
2022/09/08 04:43:56;;;;;;;60.35;49.55;;;24.40;60.80;;;;;;5001102;27;92310;-59
2022/09/08 04:46:22;;;;;;;60.22;50.03;;;24.40;61.20;;;;;;5004898;28;91141;-59
2022/09/08 04:48:48;;;;;;;60.88;50.22;;;24.40;61.50;;;;;;5000580;28;95976;-58
2022/09/08 04:51:16;;;;;;;61.75;50.00;;;24.40;61.60;;;;;;5005759;28;90985;-59
2022/09/08 04:53:43;;;;;;;62.03;50.40;;;24.40;61.90;;;;;;5007262;28;90454;-59
2022/09/08 04:56:10;;;;;;;64.57;50.25;;;24.40;62.10;;;;;;5002125;28;93118;-58
2022/09/08 04:58:38;;;;;;;60.53;49.88;;;24.40;62.00;;;;;;5001154;27;93933;-59
2022/09/08 05:01:06;;;;;;;60.75;49.72;;;24.40;61.90;;;;;;5005965;27;90058;-61
2022/09/08 05:03:31;;;;;;;60.97;49.83;;;24.50;62.00;;;;;;5000990;27;92170;-59
2022/09/08 05:06:03;;;;;;;60.83;49.90;;;24.40;62.00;;;;;;4998370;27;92343;-58
2022/09/08 05:08:29;;;;;;;62.50;49.88;;;24.50;62.20;;;;;;4999325;28;90966;-59
2022/09/08 05:10:54;;;;;;;64.65;50.05;;;24.40;62.20;;;;;;5010312;28;94936;-60
2022/09/08 05:13:20;;;;;;;61.53;50.10;;;24.40;62.10;;;;;;5008275;27;89205;-59
2022/09/08 05:15:46;;;;;;;60.83;49.97;;;24.40;62.30;;;;;;5013532;27;91264;-59
2022/09/08 05:18:11;;;;;;;61.95;49.95;;;24.40;62.30;;;;;;5012632;27;91528;-59
2022/09/08 05:20:37;;;;;;;66.47;51.40;;;24.40;62.30;;;;;;5006647;28;90829;-59
2022/09/08 05:23:03;;;;;;;70.60;52.10;;;24.40;62.50;;;;;;5000649;27;91500;-58
2022/09/08 05:25:28;;;;;;;67.05;51.88;;;24.40;62.80;;;;;;4999911;27;90904;-59
2022/09/08 05:27:54;;;;;;;71.28;52.30;;;24.40;62.60;;;;;;4993707;28;93900;-58
2022/09/08 05:30:19;;;;;;;70.35;52.55;;;24.40;62.90;;;;;;4997822;27;91535;-58
2022/09/08 05:32:45;;;;;;;70.53;52.05;;;24.40;62.80;;;;;;4994414;27;95210;-60
2022/09/08 05:35:11;;;;;;;77.90;54.53;;;24.40;62.80;;;;;;4992831;28;91240;-56
2022/09/08 05:37:36;;;;;;;73.03;53.55;;;24.40;63.30;;;;;;5007283;28;90019;-50
2022/09/08 05:40:03;;;;;;;75.88;53.20;;;24.50;63.50;;;;;;5015799;27;89863;-58
2022/09/08 05:42:28;;;;;;;79.15;53.17;;;24.50;63.70;;;;;;5002258;27;92460;-53
2022/09/08 05:44:54;;;;;;;74.82;53.40;;;24.50;63.40;;;;;;5005235;28;92035;-54
2022/09/08 05:47:20;;;;;;;77.35;52.85;;;24.50;63.70;;;;;;5012150;28;92173;-55
2022/09/08 05:49:46;;;;;;;70.93;52.42;;;24.50;63.60;;;;;;5004537;28;90933;-54
2022/09/08 05:52:12;;;;;;;71.13;52.65;;;24.50;63.30;;;;;;5003018;28;90764;-57
2022/09/08 05:54:38;;;;;;;71.20;52.05;;;24.60;63.30;;;;;;4989592;28;91877;-56
2022/09/08 05:57:04;;;;;;;69.43;52.35;;;24.50;63.00;;;;;;5006932;28;91207;-55
2022/09/08 05:59:30;;;;;;;73.85;52.50;;;24.60;62.90;;;;;;5004108;27;89943;-55
2022/09/08 06:01:56;;;;;;;72.75;52.72;;;24.50;63.00;;;;;;5003523;28;89150;-59
2022/09/08 06:04:22;;;;;;;70.47;52.38;;;24.50;62.90;;;;;;5013929;28;92019;-60
2022/09/08 06:06:47;;;;;;;69.53;52.47;;;24.50;62.80;;;;;;5008905;28;89847;-58
2022/09/08 06:09:13;;;;;;;68.47;52.10;;;24.60;62.70;;;;;;5010065;28;90910;-56
2022/09/08 06:11:39;;;;;;;72.28;53.08;;;24.50;62.70;;;;;;5012442;27;90112;-58
2022/09/08 06:14:05;;;;;;;68.85;51.50;;;24.50;62.70;;;;;;5011870;28;91128;-62
2022/09/08 06:16:32;;;;;;;65.07;51.53;;;24.40;60.00;;;;;;5010994;28;90949;-56
2022/09/08 06:19:00;;;;;;;66.75;51.63;;;24.00;61.00;;;;;;5005940;28;89962;-55
2022/09/08 06:21:29;;;;;;;66.90;51.45;;;23.80;62.20;;;;;;5010205;28;90198;-56
2022/09/08 06:24:00;;;;;;;66.88;51.13;;;23.60;62.20;;;;;;5009822;27;92895;-53
2022/09/08 06:26:50;;;;;;;64.03;51.33;;;23.40;63.40;;;;;;4998764;28;91551;-53
2022/09/08 06:29:30;;;;;;;65.78;50.67;;;23.20;63.40;;;;;;5004319;28;89522;-54
2022/09/08 06:32:20;;;;;;;63.95;50.83;;;23.10;64.30;;;;;;5009659;28;90280;-54
2022/09/08 06:34:53;;;;;;;65.18;50.53;;;23.10;63.60;;;;;;5002563;27;92037;-60
2022/09/08 06:37:44;;;;;;;64.03;50.55;;;23.20;64.20;;;;;;4998069;28;91882;-55
2022/09/08 06:40:39;;;;;;;66.80;50.83;;;23.20;63.60;;;;;;5003007;28;90906;-52
2022/09/08 06:43:30;;;;;;;63.58;50.10;;;23.20;63.30;;;;;;5003397;28;96993;-60
2022/09/08 06:45:57;;;;;;;66.20;50.25;;;23.10;63.20;;;;;;5008836;28;91340;-62
2022/09/08 06:48:33;;;;;;;62.08;50.45;;;23.20;64.00;;;;;;5006305;28;91087;-55
2022/09/08 06:51:33;;;;;;;62.72;50.17;;;23.20;63.80;;;;;;4996949;27;90953;-57
2022/09/08 06:54:08;;;;;;;61.20;50.50;;;23.10;63.70;;;;;;5001467;28;89749;-57
2022/09/08 06:57:04;;;;;;;63.92;50.58;;;23.00;64.00;;;;;;5005486;28;90367;-53
2022/09/08 06:59:33;;;;;;;66.25;50.28;;;23.00;64.30;;;;;;4996840;28;95594;-54
2022/09/08 07:02:14;;;;;;;63.90;50.40;;;23.10;63.30;;;;;;5005294;27;92836;-55
2022/09/08 07:04:45;;;;;;;66.55;50.22;;;23.10;64.00;;;;;;5004589;28;90684;-54
2022/09/08 07:07:11;;;;;;;;;;;23.00;64.10;;;;;;5013231;28;91246;-51
2022/09/08 07:10:09;;;;;;;63.70;49.95;;;22.90;64.80;;;;;;5016374;28;90878;-55
2022/09/08 07:12:54;;;;;;;61.65;50.13;;;22.90;64.30;;;;;;4973797;27;90360;-63
2022/09/08 07:15:44;;;;;;;65.78;50.28;;;23.00;64.50;;;;;;5009987;27;89698;-61
2022/09/08 07:18:39;;;;;;;62.65;50.00;;;23.00;63.90;;;;;;5008587;28;91065;-57
2022/09/08 07:21:30;;;;;;;63.65;50.17;;;23.00;64.30;;;;;;5010362;28;92790;-54
2022/09/08 07:23:59;;;;;;;63.72;50.00;;;23.10;63.90;;;;;;5009770;28;89935;-62
2022/09/08 07:26:59;;;;;;;61.47;49.72;;;23.10;64.10;;;;;;5008831;28;89924;-55
2022/09/08 07:29:39;;;;;;;60.78;49.72;;;23.10;63.70;;;;;;5004530;27;92152;-59
2022/09/08 07:32:10;;;;;;;62.63;50.28;;;23.10;63.60;;;;;;5014005;28;91926;-57
2022/09/08 07:34:42;;;;;;;61.83;50.20;;;23.20;63.40;;;;;;5014163;28;92486;-58
2022/09/08 07:37:24;;;;;;;60.60;49.78;;;23.30;62.60;;;;;;5004466;27;90018;-60
2022/09/08 07:39:58;;;;;;;59.95;49.72;;;23.30;62.50;;;;;;5002852;28;90093;-58
2022/09/08 07:42:25;;;;;;;63.10;50.25;;;23.40;62.90;;;;;;5012559;27;91723;-57
2022/09/08 07:44:58;;;;;;;61.17;50.00;;;23.30;62.60;;;;;;5008255;28;92718;-59
2022/09/08 07:47:42;;;;;;;65.15;50.05;;;23.30;62.10;;;;;;5009328;28;89884;-58
2022/09/08 07:53:50;;;;;;;65.60;49.88;;;23.20;62.20;;;;;;5003739;28;94303;-58
2022/09/08 07:56:24;;;;;;;63.53;49.92;;;23.20;62.20;;;;;;5003354;28;91210;-56
2022/09/08 07:59:16;;;;;;;61.22;49.72;;;23.20;62.00;;;;;;5006669;27;90784;-59
2022/09/08 08:02:19;;;;;;;64.65;50.08;;;23.30;61.90;;;;;;5008497;28;91238;-60
2022/09/08 08:05:08;;;;;;;66.45;50.22;;;23.30;61.10;;;;;;5014390;28;91144;-48
2022/09/08 08:07:47;;;;;;;64.05;49.95;;;23.20;61.00;;;;;;5010345;27;92317;-55
2022/09/08 08:10:47;;;;;;;62.75;49.92;;;23.20;62.10;;;;;;5004175;27;92939;-55
2022/09/08 08:13:27;;;;;;;63.58;50.33;;;23.20;62.30;;;;;;5005005;27;95569;-53
2022/09/08 08:16:12;;;;;;;62.33;49.55;;;23.30;61.30;;;;;;5001046;28;93074;-52
2022/09/08 08:18:47;;;;;;;63.38;49.95;;;23.30;61.50;;;;;;5004698;28;90167;-54
2022/09/08 08:21:22;;;;;;;64.00;50.15;;;23.40;61.20;;;;;;5007962;28;92242;-53
2022/09/08 08:24:03;;;;;;;63.30;50.33;;;23.40;61.00;;;;;;5006727;28;93901;-54
2022/09/08 08:26:34;;;;;;;64.15;50.50;;;23.40;60.60;;;;;;5004771;27;92245;-50
2022/09/08 08:29:26;;;;;;;64.38;49.92;;;23.40;61.50;;;;;;5011688;28;89949;-56
2022/09/08 08:32:14;;;;;;;65.82;50.25;;;23.50;61.00;;;;;;5004220;28;89850;-56
2022/09/08 08:35:03;;;;;;;63.00;50.20;;;23.50;60.50;;;;;;5009502;28;92371;-51
2022/09/08 08:37:31;;;;;;;65.95;50.17;;;23.60;60.40;;;;;;5011016;28;91496;-57
2022/09/08 08:40:00;;;;;;;66.05;50.13;;;23.50;59.80;;;;;;5007208;28;90689;-53
2022/09/08 08:42:33;;;;;;;66.20;49.90;;;23.50;59.70;;;;;;5002456;28;89120;-53
2022/09/08 08:45:29;;;;;;;63.85;50.22;;;23.50;60.70;;;;;;5004037;28;90973;-55
2022/09/08 08:48:13;;;;;;;64.40;50.28;;;23.50;60.00;;;;;;5002281;28;102790;-60
2022/09/08 08:50:51;;;;;;;64.15;50.33;;;23.60;60.70;;;;;;5013894;28;90665;-57
2022/09/08 08:53:29;;;;;;;63.75;50.17;;;23.60;59.90;;;;;;5014332;28;89880;-57
2022/09/08 08:56:13;;;;;;;62.13;50.20;;;23.70;59.40;;;;;;5006772;27;91182;-55
2022/09/08 08:58:48;;;;;;;64.97;50.72;;;23.60;60.00;;;;;;5010960;27;91129;-60
2022/09/08 09:01:16;;;;;;;65.82;50.13;;;23.60;60.00;;;;;;5009517;28;89871;-51
2022/09/08 09:04:00;;;;;;;66.90;50.45;;;23.60;59.50;;;;;;5010125;28;93486;-53
2022/09/08 09:06:55;;;;;;;68.05;50.45;;;23.60;60.30;;;;;;5011388;28;90140;-52
2022/09/08 09:09:44;;;;;;;66.10;50.72;;;23.60;60.40;;;;;;5012862;27;91369;-56
2022/09/08 09:12:22;;;;;;;63.42;50.35;;;23.60;60.00;;;;;;5003984;28;97109;-54
2022/09/08 09:14:59;;;;;;;62.88;50.40;;;23.60;59.70;;;;;;4999999;27;91260;-55
2022/09/08 09:17:55;;;;;;;64.03;50.30;;;23.70;59.40;;;;;;5005561;27;92082;-56
2022/09/08 09:20:39;;;;;;;64.90;50.38;;;23.70;58.90;;;;;;5003831;28;92563;-52
2022/09/08 09:23:05;;;;;;;67.82;50.63;;;23.80;59.10;;;;;;5006965;28;90609;-52
2022/09/08 09:25:35;;;;;;;64.28;50.55;;;23.80;58.70;;;;;;5003354;28;89901;-52
2022/09/08 09:28:06;;;;;;;64.22;50.38;;;23.70;58.90;;;;;;5001460;28;91655;-55
2022/09/08 09:31:10;;;;;;;64.30;50.40;;;23.70;58.80;;;;;;5002416;28;91033;-52
2022/09/08 09:34:19;;;;;;;63.97;50.08;;;23.80;58.50;;;;;;5007855;28;89935;-53
2022/09/08 09:37:00;;;;;;;63.13;50.17;;;23.90;59.10;;;;;;4989388;27;94628;-55
2022/09/08 09:39:34;;;;;;;64.37;50.30;;;23.90;58.00;;;;;;5007303;28;90667;-62
2022/09/08 09:42:42;;;;;;;66.13;50.40;;;23.90;58.40;;;;;;5006772;28;97170;-55
2022/09/08 09:45:47;;;;;;;64.47;50.47;;;23.90;59.00;;;;;;5002323;28;94978;-58
2022/09/08 09:48:32;;;;;;;65.15;50.25;;;23.90;58.20;;;;;;5005743;28;90277;-57
2022/09/08 09:51:06;;;;;;;65.25;50.47;;;23.90;58.60;;;;;;4998947;27;93188;-58
2022/09/08 09:54:09;;;;;;;66.03;50.63;;;24.00;58.90;;;;;;5005276;28;90832;-59
2022/09/08 09:56:56;;;;;;;65.68;50.55;;;24.00;58.80;;;;;;5005589;27;90717;-55
2022/09/08 09:59:59;;;;;;;62.03;50.20;;;24.10;58.30;;;;;;5000252;27;89875;-52
2022/09/08 10:03:02;;;;;;;62.67;50.10;;;24.20;58.40;;;;;;4993973;27;91094;-54
2022/09/08 10:05:54;;;;;;;66.10;50.45;;;24.20;57.50;;;;;;5001232;28;94630;-54
2022/09/08 10:08:26;;;;;;;67.47;50.92;;;24.20;57.80;;;;;;5005973;28;91086;-56
2022/09/08 10:11:30;;;;;;;65.10;50.47;;;24.20;57.80;;;;;;5011346;28;89861;-54
2022/09/08 10:14:26;;;;;;;61.75;50.28;;;24.20;58.20;;;;;;5003424;28;94886;-53
2022/09/08 10:17:10;;;;;;;65.28;50.40;;;24.20;57.50;;;;;;5006476;27;91963;-53
2022/09/08 10:19:58;;;;;;;65.00;50.67;;;24.30;57.70;;;;;;5005615;28;90474;-54
2022/09/08 10:23:11;;;;;;;63.92;50.10;;;24.40;56.40;;;;;;5007388;28;90416;-54
2022/09/08 10:25:45;;;;;;;64.20;50.42;;;24.40;56.80;;;;;;5006539;28;91247;-55
2022/09/08 10:28:33;;;;;;;63.80;50.28;;;24.40;56.40;;;;;;5007111;27;90900;-57
2022/09/08 10:31:33;;;;;;;62.08;50.17;;;24.30;56.90;;;;;;5004489;28;90369;-60
2022/09/08 10:34:02;;;;;;;65.40;50.33;;;24.20;56.70;;;;;;5009828;28;89776;-51
2022/09/08 10:36:46;;;;;;;67.00;50.40;;;24.30;57.30;;;;;;5001214;27;90072;-51
2022/09/08 10:39:27;;;;;;;64.65;50.58;;;24.30;57.20;;;;;;5008476;27;90481;-56
2022/09/08 10:42:17;;;;;;;64.57;50.75;;;24.40;56.30;;;;;;4980124;28;94971;-61
2022/09/08 10:45:22;;;;;;;65.97;50.72;;;24.30;57.10;;;;;;4989520;27;93595;-53
2022/09/08 10:47:47;;;;;;;64.38;50.63;;;24.40;56.80;;;;;;4989715;27;91764;-55
2022/09/08 10:50:20;;;;;;;65.70;50.78;;;24.30;57.10;;;;;;4990150;27;94230;-54
2022/09/08 10:53:04;;;;;;;65.00;50.75;;;24.40;56.70;;;;;;4997464;27;94948;-56
2022/09/08 10:55:32;;;;;;;64.93;50.65;;;24.40;57.20;;;;;;5005586;27;92038;-52
2022/09/08 10:58:29;;;;;;;65.13;50.95;;;24.30;57.60;;;;;;4994286;27;91268;-56
2022/09/08 11:00:54;;;;;;;66.35;50.58;;;24.30;58.10;;;;;;5010805;28;91031;-54
2022/09/08 11:03:38;;;;;;;65.15;50.70;;;24.10;58.70;;;;;;4992183;28;91100;-54
2022/09/08 11:06:07;;;;;;;64.07;50.75;;;24.10;59.50;;;;;;4988828;27;89832;-55
2022/09/08 11:08:46;;;;;;;65.70;50.55;;;24.10;60.00;;;;;;4994065;27;92690;-52
2022/09/08 11:11:46;;;;;;;64.28;50.75;;;24.00;60.60;;;;;;5001494;28;91894;-53
2022/09/08 11:14:22;;;;;;;65.10;50.60;;;24.10;61.10;;;;;;4987420;28;91321;-57
2022/09/08 11:16:56;;;;;;;63.75;50.15;;;24.10;62.50;;;;;;5007834;28;92947;-55
2022/09/08 11:19:37;;;;;;;66.75;50.95;;;24.10;62.10;;;;;;5000337;28;91803;-52
2022/09/08 11:22:50;;;;;;;64.25;50.47;;;24.00;62.20;;;;;;5003489;28;90912;-50
2022/09/08 11:25:20;;;;;;;61.45;50.22;;;24.00;63.10;;;;;;4985695;28;91007;-52
2022/09/08 11:28:24;;;;;;;65.00;50.67;;;24.00;63.60;;;;;;5007392;27;94611;-53
2022/09/08 11:31:11;;;;;;;66.22;50.58;;;24.00;65.90;;;;;;4977136;28;92641;-59
2022/09/08 11:34:09;;;;;;;64.97;50.38;;;24.00;64.00;;;;;;4985828;28;94507;-53
2022/09/08 11:37:00;;;;;;;63.45;50.47;;;24.10;63.90;;;;;;5004077;28;90550;-54
2022/09/08 11:39:52;;;;;;;63.97;50.83;;;24.10;64.30;;;;;;5000943;27;92351;-56
2022/09/08 11:42:50;;;;;;;63.70;50.22;;;24.10;62.60;;;;;;5002855;28;91165;-55
2022/09/08 11:45:43;;;;;;;65.90;50.80;;;24.10;63.30;;;;;;5005933;28;91046;-56
2022/09/08 11:48:33;;;;;;;64.15;50.22;;;24.20;63.90;;;;;;5004389;27;89988;-59
2022/09/08 11:51:02;;;;;;;65.18;50.92;;;24.10;64.60;;;;;;5005876;28;89979;-57
2022/09/08 11:53:42;;;;;;;65.95;50.75;;;24.20;63.70;;;;;;5004146;28;92500;-55
2022/09/08 11:56:23;;;;;;;65.45;50.67;;;24.30;62.10;;;;;;5003007;28;91177;-56
2022/09/08 11:58:49;;;;;;;67.20;50.80;;;24.40;61.90;;;;;;5005229;27;90274;-56
2022/09/08 12:01:15;;;;;;;65.82;50.75;;;24.40;61.00;;;;;;5002100;27;92422;-59
2022/09/08 12:04:02;;;;;;;62.88;50.75;;;24.40;61.30;;;;;;5010021;28;91363;-57
2022/09/08 12:06:52;;;;;;;69.30;50.85;;;24.30;61.30;;;;;;5009189;28;91981;-54
2022/09/08 12:09:25;;;;;;;68.80;50.90;;;24.30;62.30;;;;;;5001915;28;93838;-55
2022/09/08 12:12:10;;;;;;;63.58;50.83;;;24.30;61.20;;;;;;5007758;27;89820;-55
2022/09/08 12:15:02;;;;;;;64.72;50.72;;;24.30;61.80;;;;;;5005251;28;91318;-54
2022/09/08 12:17:47;;;;;;;65.65;50.67;;;24.30;61.80;;;;;;4995669;28;92459;-52
2022/09/08 12:20:36;;;;;;;65.53;50.63;;;24.30;61.80;;;;;;5005286;28;93470;-56
2022/09/08 12:23:39;;;;;;;63.70;50.58;;;24.30;61.80;;;;;;5010854;28;91730;-57
2022/09/08 12:26:44;;;;;;;65.97;50.63;;;24.40;62.50;;;;;;5005662;28;90918;-56
2022/09/08 12:29:16;;;;;;;65.65;50.50;;;24.40;63.10;;;;;;4994185;27;91975;-53
2022/09/08 12:31:53;;;;;;;65.70;50.72;;;24.50;62.00;;;;;;5010024;28;91437;-58
2022/09/08 12:34:34;;;;;;;65.65;50.40;;;24.50;62.20;;;;;;5005087;27;94095;-52
2022/09/08 12:37:38;;;;;;;65.43;50.55;;;24.50;62.10;;;;;;5004016;27;90168;-59
2022/09/08 12:40:25;;;;;;;65.95;50.72;;;24.50;61.90;;;;;;4990932;28;90305;-56
2022/09/08 12:42:53;;;;;;;65.45;50.53;;;24.50;61.80;;;;;;5004091;28;93510;-54
2022/09/08 12:45:37;;;;;;;64.05;50.80;;;24.50;62.80;;;;;;5012217;28;92980;-58
2022/09/08 12:48:03;;;;;;;69.85;51.10;;;24.60;62.20;;;;;;5010145;28;91287;-60
2022/09/08 12:51:00;;;;;;;64.85;50.53;;;24.60;62.20;;;;;;5007532;27;90785;-56
2022/09/08 12:54:01;;;;;;;65.03;50.65;;;24.70;61.60;;;;;;5010419;28;89521;-53
2022/09/08 12:56:36;;;;;;;63.42;50.60;;;24.70;61.10;;;;;;4993989;28;90249;-54
2022/09/08 12:59:19;;;;;;;68.40;50.97;;;24.80;60.90;;;;;;5010720;28;92506;-56
2022/09/08 13:02:12;;;;;;;65.38;51.05;;;24.70;61.40;;;;;;5014959;28;92898;-56
2022/09/08 13:04:44;;;;;;;68.00;51.22;;;24.90;59.90;;;;;;5016101;28;92808;-56
2022/09/08 13:07:31;;;;;;;64.97;51.00;;;24.80;61.00;;;;;;5013661;28;90180;-56
2022/09/08 13:10:25;;;;;;;65.53;50.85;;;24.80;60.90;;;;;;5008096;27;91243;-58
2022/09/08 13:13:04;;;;;;;65.85;51.00;;;24.90;61.00;;;;;;5012635;28;91616;-59
2022/09/08 13:15:42;;;;;;;69.35;51.05;;;24.90;60.10;;;;;;5001004;28;90045;-61
2022/09/08 13:18:08;;;;;;;66.28;51.13;;;25.00;60.10;;;;;;5007618;27;98029;-63
2022/09/08 13:20:40;;;;;;;67.20;51.45;;;25.00;58.90;;;;;;5006613;27;91195;-57
2022/09/08 13:23:30;;;;;;;69.35;51.13;;;25.00;59.50;;;;;;5012137;27;90688;-58